sensor_id;sensor_type;location;lat;lon;timestamp;P1;durP1;ratioP1;P2;durP2;ratioP2
60847;SDS011;46681;47.696;9.140;2023-03-15T00:01:10;1.70;;;0.90;;
60847;SDS011;46681;47.696;9.140;2023-03-15T00:03:39;2.80;;;1.23;;
60847;SDS011;46681;47.696;9.140;2023-03-15T00:06:05;1.13;;;1.10;;
60847;SDS011;46681;47.696;9.140;2023-03-15T00:08:36;1.00;;;1.00;;
60847;SDS011;46681;47.696;9.140;2023-03-15T00:11:01;1.10;;;1.00;;
60847;SDS011;46681;47.696;9.140;2023-03-15T00:13:27;0.77;;;0.77;;
60847;SDS011;46681;47.696;9.140;2023-03-15T00:15:57;1.37;;;1.00;;
60847;SDS011;46681;47.696;9.140;2023-03-15T00:18:24;0.80;;;0.80;;
60847;SDS011;46681;47.696;9.140;2023-03-15T00:20:50;1.37;;;0.90;;
60847;SDS011;46681;47.696;9.140;2023-03-15T00:23:15;0.80;;;0.80;;
60847;SDS011;46681;47.696;9.140;2023-03-15T00:25:44;1.00;;;1.00;;
60847;SDS011;46681;47.696;9.140;2023-03-15T00:28:11;0.90;;;0.90;;
60847;SDS011;46681;47.696;9.140;2023-03-15T00:30:37;0.90;;;0.90;;
60847;SDS011;46681;47.696;9.140;2023-03-15T00:33:02;0.90;;;0.90;;
60847;SDS011;46681;47.696;9.140;2023-03-15T00:35:28;0.83;;;0.83;;
60847;SDS011;46681;47.696;9.140;2023-03-15T00:37:56;1.63;;;0.80;;
60847;SDS011;46681;47.696;9.140;2023-03-15T00:40:22;1.03;;;1.00;;
60847;SDS011;46681;47.696;9.140;2023-03-15T00:42:50;0.73;;;0.73;;
60847;SDS011;46681;47.696;9.140;2023-03-15T00:45:17;1.00;;;1.00;;
60847;SDS011;46681;47.696;9.140;2023-03-15T00:47:50;0.90;;;0.90;;
60847;SDS011;46681;47.696;9.140;2023-03-15T00:50:16;0.80;;;0.80;;
60847;SDS011;46681;47.696;9.140;2023-03-15T00:52:42;1.00;;;1.00;;
60847;SDS011;46681;47.696;9.140;2023-03-15T00:55:12;0.90;;;0.90;;
60847;SDS011;46681;47.696;9.140;2023-03-15T00:57:40;1.00;;;1.00;;
60847;SDS011;46681;47.696;9.140;2023-03-15T01:00:10;0.80;;;0.80;;
60847;SDS011;46681;47.696;9.140;2023-03-15T01:02:41;1.10;;;1.10;;
60847;SDS011;46681;47.696;9.140;2023-03-15T01:05:09;0.77;;;0.77;;
60847;SDS011;46681;47.696;9.140;2023-03-15T01:07:36;1.00;;;1.00;;
60847;SDS011;46681;47.696;9.140;2023-03-15T01:10:03;0.80;;;0.80;;
60847;SDS011;46681;47.696;9.140;2023-03-15T01:12:31;0.90;;;0.90;;
60847;SDS011;46681;47.696;9.140;2023-03-15T01:14:59;0.80;;;0.80;;
60847;SDS011;46681;47.696;9.140;2023-03-15T01:17:26;0.90;;;0.90;;
60847;SDS011;46681;47.696;9.140;2023-03-15T01:19:51;0.90;;;0.90;;
60847;SDS011;46681;47.696;9.140;2023-03-15T01:22:17;0.87;;;0.87;;
60847;SDS011;46681;47.696;9.140;2023-03-15T01:24:44;0.87;;;0.87;;
60847;SDS011;46681;47.696;9.140;2023-03-15T01:27:09;1.10;;;0.90;;
60847;SDS011;46681;47.696;9.140;2023-03-15T01:29:35;0.90;;;0.90;;
60847;SDS011;46681;47.696;9.140;2023-03-15T01:32:00;1.00;;;1.00;;
60847;SDS011;46681;47.696;9.140;2023-03-15T01:34:27;1.00;;;1.00;;
60847;SDS011;46681;47.696;9.140;2023-03-15T01:36:52;1.00;;;1.00;;
60847;SDS011;46681;47.696;9.140;2023-03-15T01:39:18;1.07;;;1.00;;
60847;SDS011;46681;47.696;9.140;2023-03-15T01:41:43;0.90;;;0.90;;
60847;SDS011;46681;47.696;9.140;2023-03-15T01:44:16;1.40;;;1.20;;
60847;SDS011;46681;47.696;9.140;2023-03-15T01:46:43;1.30;;;1.30;;
60847;SDS011;46681;47.696;9.140;2023-03-15T01:49:16;1.00;;;1.00;;
60847;SDS011;46681;47.696;9.140;2023-03-15T01:51:54;1.20;;;1.20;;
60847;SDS011;46681;47.696;9.140;2023-03-15T01:57:22;1.80;;;1.20;;
60847;SDS011;46681;47.696;9.140;2023-03-15T02:00:06;1.10;;;1.07;;
60847;SDS011;46681;47.696;9.140;2023-03-15T02:02:40;1.40;;;1.30;;
60847;SDS011;46681;47.696;9.140;2023-03-15T02:05:19;1.40;;;1.30;;
60847;SDS011;46681;47.696;9.140;2023-03-15T02:07:49;1.20;;;1.20;;
60847;SDS011;46681;47.696;9.140;2023-03-15T02:10:17;1.43;;;1.33;;
60847;SDS011;46681;47.696;9.140;2023-03-15T02:12:59;1.17;;;1.10;;
60847;SDS011;46681;47.696;9.140;2023-03-15T02:15:26;1.77;;;1.30;;
60847;SDS011;46681;47.696;9.140;2023-03-15T02:17:51;1.33;;;1.30;;
60847;SDS011;46681;47.696;9.140;2023-03-15T02:23:10;1.20;;;1.20;;
60847;SDS011;46681;47.696;9.140;2023-03-15T02:28:24;1.20;;;1.20;;
60847;SDS011;46681;47.696;9.140;2023-03-15T02:30:50;1.20;;;1.20;;
60847;SDS011;46681;47.696;9.140;2023-03-15T02:38:45;0.90;;;0.90;;
60847;SDS011;46681;47.696;9.140;2023-03-15T02:41:12;1.03;;;1.03;;
60847;SDS011;46681;47.696;9.140;2023-03-15T02:43:42;1.20;;;1.10;;
60847;SDS011;46681;47.696;9.140;2023-03-15T02:46:09;0.90;;;0.90;;
60847;SDS011;46681;47.696;9.140;2023-03-15T02:48:35;1.10;;;1.10;;
60847;SDS011;46681;47.696;9.140;2023-03-15T02:51:05;1.27;;;1.20;;
60847;SDS011;46681;47.696;9.140;2023-03-15T02:53:30;1.00;;;1.00;;
60847;SDS011;46681;47.696;9.140;2023-03-15T02:55:56;1.10;;;1.10;;
60847;SDS011;46681;47.696;9.140;2023-03-15T02:58:22;1.00;;;1.00;;
60847;SDS011;46681;47.696;9.140;2023-03-15T03:00:48;1.00;;;1.00;;
60847;SDS011;46681;47.696;9.140;2023-03-15T03:03:15;1.13;;;1.13;;
60847;SDS011;46681;47.696;9.140;2023-03-15T03:08:19;1.10;;;1.10;;
60847;SDS011;46681;47.696;9.140;2023-03-15T03:10:46;1.07;;;1.07;;
60847;SDS011;46681;47.696;9.140;2023-03-15T03:13:11;1.00;;;1.00;;
60847;SDS011;46681;47.696;9.140;2023-03-15T03:15:37;1.70;;;1.20;;
60847;SDS011;46681;47.696;9.140;2023-03-15T03:18:02;1.73;;;1.20;;
60847;SDS011;46681;47.696;9.140;2023-03-15T03:20:30;1.10;;;1.10;;
60847;SDS011;46681;47.696;9.140;2023-03-15T03:22:55;1.37;;;1.27;;
60847;SDS011;46681;47.696;9.140;2023-03-15T03:25:23;1.00;;;1.00;;
60847;SDS011;46681;47.696;9.140;2023-03-15T03:27:48;1.07;;;1.07;;
60847;SDS011;46681;47.696;9.140;2023-03-15T03:30:17;1.20;;;1.10;;
60847;SDS011;46681;47.696;9.140;2023-03-15T03:32:42;2.23;;;1.30;;
60847;SDS011;46681;47.696;9.140;2023-03-15T03:35:11;1.10;;;1.10;;
60847;SDS011;46681;47.696;9.140;2023-03-15T03:37:38;1.10;;;1.10;;
60847;SDS011;46681;47.696;9.140;2023-03-15T03:40:06;2.30;;;1.20;;
60847;SDS011;46681;47.696;9.140;2023-03-15T03:42:32;1.13;;;1.13;;
60847;SDS011;46681;47.696;9.140;2023-03-15T03:45:00;1.20;;;1.20;;
60847;SDS011;46681;47.696;9.140;2023-03-15T03:47:27;1.27;;;1.10;;
60847;SDS011;46681;47.696;9.140;2023-03-15T03:49:53;1.10;;;1.10;;
60847;SDS011;46681;47.696;9.140;2023-03-15T03:52:18;1.10;;;1.10;;
60847;SDS011;46681;47.696;9.140;2023-03-15T03:54:44;1.17;;;1.07;;
60847;SDS011;46681;47.696;9.140;2023-03-15T03:57:09;1.20;;;1.17;;
60847;SDS011;46681;47.696;9.140;2023-03-15T03:59:35;1.37;;;1.00;;
60847;SDS011;46681;47.696;9.140;2023-03-15T04:02:00;1.40;;;1.30;;
60847;SDS011;46681;47.696;9.140;2023-03-15T04:04:28;2.00;;;1.20;;
60847;SDS011;46681;47.696;9.140;2023-03-15T04:06:53;1.20;;;1.20;;
60847;SDS011;46681;47.696;9.140;2023-03-15T04:09:20;1.27;;;1.27;;
60847;SDS011;46681;47.696;9.140;2023-03-15T04:11:46;1.33;;;1.23;;
60847;SDS011;46681;47.696;9.140;2023-03-15T04:14:14;1.37;;;1.10;;
60847;SDS011;46681;47.696;9.140;2023-03-15T04:16:39;1.20;;;1.20;;
60847;SDS011;46681;47.696;9.140;2023-03-15T04:19:05;1.10;;;1.10;;
60847;SDS011;46681;47.696;9.140;2023-03-15T04:21:32;1.13;;;1.10;;
60847;SDS011;46681;47.696;9.140;2023-03-15T04:24:01;1.00;;;1.00;;
60847;SDS011;46681;47.696;9.140;2023-03-15T04:26:27;1.43;;;1.10;;
60847;SDS011;46681;47.696;9.140;2023-03-15T04:28:56;1.23;;;1.23;;
60847;SDS011;46681;47.696;9.140;2023-03-15T04:31:23;1.00;;;1.00;;
60847;SDS011;46681;47.696;9.140;2023-03-15T04:33:50;1.10;;;1.10;;
60847;SDS011;46681;47.696;9.140;2023-03-15T04:36:17;1.03;;;1.00;;
60847;SDS011;46681;47.696;9.140;2023-03-15T04:38:43;1.20;;;1.20;;
60847;SDS011;46681;47.696;9.140;2023-03-15T04:41:09;2.27;;;1.20;;
60847;SDS011;46681;47.696;9.140;2023-03-15T04:43:35;1.30;;;1.10;;
60847;SDS011;46681;47.696;9.140;2023-03-15T04:46:03;3.13;;;0.90;;
60847;SDS011;46681;47.696;9.140;2023-03-15T04:48:29;2.33;;;1.40;;
60847;SDS011;46681;47.696;9.140;2023-03-15T04:50:57;1.10;;;1.10;;
60847;SDS011;46681;47.696;9.140;2023-03-15T04:53:23;1.23;;;1.23;;
60847;SDS011;46681;47.696;9.140;2023-03-15T04:55:48;1.40;;;1.27;;
60847;SDS011;46681;47.696;9.140;2023-03-15T04:58:16;1.37;;;1.30;;
60847;SDS011;46681;47.696;9.140;2023-03-15T05:00:43;1.70;;;1.33;;
60847;SDS011;46681;47.696;9.140;2023-03-15T05:03:08;1.23;;;1.23;;
60847;SDS011;46681;47.696;9.140;2023-03-15T05:05:34;2.00;;;1.43;;
60847;SDS011;46681;47.696;9.140;2023-03-15T05:08:02;1.20;;;1.20;;
60847;SDS011;46681;47.696;9.140;2023-03-15T05:10:28;1.30;;;1.20;;
60847;SDS011;46681;47.696;9.140;2023-03-15T05:12:54;1.63;;;1.53;;
60847;SDS011;46681;47.696;9.140;2023-03-15T05:15:20;1.40;;;1.30;;
60847;SDS011;46681;47.696;9.140;2023-03-15T05:17:45;1.00;;;1.00;;
60847;SDS011;46681;47.696;9.140;2023-03-15T05:20:18;1.30;;;1.30;;
60847;SDS011;46681;47.696;9.140;2023-03-15T05:22:44;1.50;;;1.37;;
60847;SDS011;46681;47.696;9.140;2023-03-15T05:25:10;2.30;;;1.10;;
60847;SDS011;46681;47.696;9.140;2023-03-15T05:27:36;1.50;;;1.40;;
60847;SDS011;46681;47.696;9.140;2023-03-15T05:30:03;1.37;;;1.27;;
60847;SDS011;46681;47.696;9.140;2023-03-15T05:32:31;1.60;;;1.00;;
60847;SDS011;46681;47.696;9.140;2023-03-15T05:34:59;1.13;;;1.10;;
60847;SDS011;46681;47.696;9.140;2023-03-15T05:37:27;2.80;;;1.30;;
60847;SDS011;46681;47.696;9.140;2023-03-15T05:39:56;1.27;;;1.17;;
60847;SDS011;46681;47.696;9.140;2023-03-15T05:42:22;1.30;;;1.20;;
60847;SDS011;46681;47.696;9.140;2023-03-15T05:44:47;2.83;;;1.33;;
60847;SDS011;46681;47.696;9.140;2023-03-15T05:47:12;2.43;;;1.40;;
60847;SDS011;46681;47.696;9.140;2023-03-15T05:49:40;1.97;;;1.87;;
60847;SDS011;46681;47.696;9.140;2023-03-15T05:52:08;2.53;;;2.10;;
60847;SDS011;46681;47.696;9.140;2023-03-15T05:54:33;2.23;;;2.00;;
60847;SDS011;46681;47.696;9.140;2023-03-15T05:57:04;2.43;;;2.23;;
60847;SDS011;46681;47.696;9.140;2023-03-15T05:59:40;2.50;;;2.30;;
60847;SDS011;46681;47.696;9.140;2023-03-15T06:02:11;2.30;;;2.10;;
60847;SDS011;46681;47.696;9.140;2023-03-15T06:04:37;2.57;;;1.97;;
60847;SDS011;46681;47.696;9.140;2023-03-15T06:07:04;1.97;;;1.83;;
60847;SDS011;46681;47.696;9.140;2023-03-15T06:09:30;1.90;;;1.80;;
60847;SDS011;46681;47.696;9.140;2023-03-15T06:11:58;3.23;;;1.80;;
60847;SDS011;46681;47.696;9.140;2023-03-15T06:14:31;1.80;;;1.70;;
60847;SDS011;46681;47.696;9.140;2023-03-15T06:17:03;2.63;;;1.93;;
60847;SDS011;46681;47.696;9.140;2023-03-15T06:19:29;2.67;;;1.83;;
60847;SDS011;46681;47.696;9.140;2023-03-15T06:21:58;1.80;;;1.70;;
60847;SDS011;46681;47.696;9.140;2023-03-15T06:24:28;2.73;;;1.90;;
60847;SDS011;46681;47.696;9.140;2023-03-15T06:27:00;1.90;;;1.80;;
60847;SDS011;46681;47.696;9.140;2023-03-15T06:29:28;1.90;;;1.80;;
60847;SDS011;46681;47.696;9.140;2023-03-15T06:31:57;2.10;;;1.77;;
60847;SDS011;46681;47.696;9.140;2023-03-15T06:34:23;2.10;;;1.90;;
60847;SDS011;46681;47.696;9.140;2023-03-15T06:36:54;1.80;;;1.70;;
60847;SDS011;46681;47.696;9.140;2023-03-15T06:39:26;2.10;;;1.70;;
60847;SDS011;46681;47.696;9.140;2023-03-15T06:41:54;3.13;;;1.60;;
60847;SDS011;46681;47.696;9.140;2023-03-15T06:44:22;1.90;;;1.73;;
60847;SDS011;46681;47.696;9.140;2023-03-15T06:46:57;2.83;;;1.70;;
60847;SDS011;46681;47.696;9.140;2023-03-15T06:49:28;2.27;;;1.90;;
60847;SDS011;46681;47.696;9.140;2023-03-15T06:52:00;3.53;;;1.67;;
60847;SDS011;46681;47.696;9.140;2023-03-15T06:54:32;1.73;;;1.63;;
60847;SDS011;46681;47.696;9.140;2023-03-15T06:56:58;6.40;;;1.60;;
60847;SDS011;46681;47.696;9.140;2023-03-15T06:59:29;1.57;;;1.47;;
60847;SDS011;46681;47.696;9.140;2023-03-15T07:01:54;6.90;;;1.87;;
60847;SDS011;46681;47.696;9.140;2023-03-15T07:04:20;2.90;;;1.60;;
60847;SDS011;46681;47.696;9.140;2023-03-15T07:07:00;3.77;;;2.10;;
60847;SDS011;46681;47.696;9.140;2023-03-15T07:09:32;1.63;;;1.53;;
60847;SDS011;46681;47.696;9.140;2023-03-15T07:12:09;3.17;;;2.00;;
60847;SDS011;46681;47.696;9.140;2023-03-15T07:14:38;3.63;;;2.13;;
60847;SDS011;46681;47.696;9.140;2023-03-15T07:17:05;2.17;;;2.00;;
60847;SDS011;46681;47.696;9.140;2023-03-15T07:19:35;1.70;;;1.60;;
60847;SDS011;46681;47.696;9.140;2023-03-15T07:22:03;2.40;;;1.70;;
60847;SDS011;46681;47.696;9.140;2023-03-15T07:24:37;3.47;;;1.97;;
60847;SDS011;46681;47.696;9.140;2023-03-15T07:27:11;6.93;;;3.00;;
60847;SDS011;46681;47.696;9.140;2023-03-15T07:29:45;4.93;;;2.13;;
60847;SDS011;46681;47.696;9.140;2023-03-15T07:32:12;2.47;;;2.10;;
60847;SDS011;46681;47.696;9.140;2023-03-15T07:34:44;7.30;;;2.13;;
60847;SDS011;46681;47.696;9.140;2023-03-15T07:37:11;2.53;;;1.80;;
60847;SDS011;46681;47.696;9.140;2023-03-15T07:39:37;2.07;;;1.87;;
60847;SDS011;46681;47.696;9.140;2023-03-15T07:42:06;5.03;;;2.57;;
60847;SDS011;46681;47.696;9.140;2023-03-15T07:44:33;2.33;;;1.87;;
60847;SDS011;46681;47.696;9.140;2023-03-15T07:47:00;3.43;;;2.03;;
60847;SDS011;46681;47.696;9.140;2023-03-15T07:49:28;2.50;;;2.03;;
60847;SDS011;46681;47.696;9.140;2023-03-15T07:52:00;2.67;;;2.20;;
60847;SDS011;46681;47.696;9.140;2023-03-15T07:54:28;2.20;;;1.63;;
60847;SDS011;46681;47.696;9.140;2023-03-15T07:56:56;1.97;;;1.43;;
60847;SDS011;46681;47.696;9.140;2023-03-15T07:59:24;2.30;;;1.63;;
60847;SDS011;46681;47.696;9.140;2023-03-15T08:01:50;2.20;;;1.80;;
60847;SDS011;46681;47.696;9.140;2023-03-15T08:04:26;2.33;;;1.70;;
60847;SDS011;46681;47.696;9.140;2023-03-15T08:07:02;4.60;;;2.10;;
60847;SDS011;46681;47.696;9.140;2023-03-15T08:09:29;1.87;;;1.77;;
60847;SDS011;46681;47.696;9.140;2023-03-15T08:11:55;1.77;;;1.60;;
60847;SDS011;46681;47.696;9.140;2023-03-15T08:14:26;2.70;;;1.70;;
60847;SDS011;46681;47.696;9.140;2023-03-15T08:17:01;3.67;;;1.80;;
60847;SDS011;46681;47.696;9.140;2023-03-15T08:19:28;4.63;;;1.83;;
60847;SDS011;46681;47.696;9.140;2023-03-15T08:21:54;2.87;;;2.10;;
60847;SDS011;46681;47.696;9.140;2023-03-15T08:24:20;2.93;;;1.80;;
60847;SDS011;46681;47.696;9.140;2023-03-15T08:26:46;2.10;;;1.90;;
60847;SDS011;46681;47.696;9.140;2023-03-15T08:29:14;2.27;;;1.43;;
60847;SDS011;46681;47.696;9.140;2023-03-15T08:31:45;3.83;;;1.70;;
60847;SDS011;46681;47.696;9.140;2023-03-15T08:34:18;3.80;;;2.10;;
60847;SDS011;46681;47.696;9.140;2023-03-15T08:36:46;2.73;;;1.57;;
60847;SDS011;46681;47.696;9.140;2023-03-15T08:39:13;1.90;;;1.60;;
60847;SDS011;46681;47.696;9.140;2023-03-15T08:41:42;1.67;;;1.40;;
60847;SDS011;46681;47.696;9.140;2023-03-15T08:44:10;1.93;;;1.70;;
60847;SDS011;46681;47.696;9.140;2023-03-15T08:46:48;2.17;;;1.40;;
60847;SDS011;46681;47.696;9.140;2023-03-15T08:49:26;1.67;;;1.20;;
60847;SDS011;46681;47.696;9.140;2023-03-15T08:51:54;3.10;;;1.60;;
60847;SDS011;46681;47.696;9.140;2023-03-15T08:54:20;3.90;;;1.60;;
60847;SDS011;46681;47.696;9.140;2023-03-15T08:56:47;1.17;;;1.07;;
60847;SDS011;46681;47.696;9.140;2023-03-15T08:59:13;3.30;;;1.60;;
60847;SDS011;46681;47.696;9.140;2023-03-15T09:01:38;2.27;;;1.50;;
60847;SDS011;46681;47.696;9.140;2023-03-15T09:04:10;1.73;;;1.30;;
60847;SDS011;46681;47.696;9.140;2023-03-15T09:06:37;1.43;;;1.30;;
60847;SDS011;46681;47.696;9.140;2023-03-15T09:09:04;2.00;;;1.30;;
60847;SDS011;46681;47.696;9.140;2023-03-15T09:11:40;1.40;;;1.30;;
60847;SDS011;46681;47.696;9.140;2023-03-15T09:14:07;1.20;;;1.20;;
60847;SDS011;46681;47.696;9.140;2023-03-15T09:16:33;1.77;;;1.27;;
60847;SDS011;46681;47.696;9.140;2023-03-15T09:19:00;2.63;;;1.60;;
60847;SDS011;46681;47.696;9.140;2023-03-15T09:21:26;1.67;;;1.53;;
60847;SDS011;46681;47.696;9.140;2023-03-15T09:23:54;2.60;;;1.33;;
60847;SDS011;46681;47.696;9.140;2023-03-15T09:26:23;1.07;;;1.07;;
60847;SDS011;46681;47.696;9.140;2023-03-15T09:28:51;3.90;;;1.47;;
60847;SDS011;46681;47.696;9.140;2023-03-15T09:34:04;1.20;;;1.10;;
60847;SDS011;46681;47.696;9.140;2023-03-15T09:36:34;1.57;;;1.20;;
60847;SDS011;46681;47.696;9.140;2023-03-15T09:39:04;1.90;;;1.20;;
60847;SDS011;46681;47.696;9.140;2023-03-15T09:44:45;2.83;;;1.30;;
60847;SDS011;46681;47.696;9.140;2023-03-15T09:50:44;1.43;;;1.10;;
60847;SDS011;46681;47.696;9.140;2023-03-15T09:59:08;1.80;;;1.40;;
60847;SDS011;46681;47.696;9.140;2023-03-15T10:01:40;1.13;;;1.10;;
60847;SDS011;46681;47.696;9.140;2023-03-15T10:04:47;1.53;;;1.03;;
60847;SDS011;46681;47.696;9.140;2023-03-15T10:07:11;1.27;;;1.17;;
60847;SDS011;46681;47.696;9.140;2023-03-15T10:09:49;1.30;;;1.20;;
60847;SDS011;46681;47.696;9.140;2023-03-15T10:12:27;1.20;;;1.10;;
60847;SDS011;46681;47.696;9.140;2023-03-15T10:18:05;1.10;;;1.10;;
60847;SDS011;46681;47.696;9.140;2023-03-15T10:20:59;0.80;;;0.80;;
60847;SDS011;46681;47.696;9.140;2023-03-15T10:23:44;1.07;;;0.87;;
60847;SDS011;46681;47.696;9.140;2023-03-15T10:26:30;1.00;;;1.00;;
60847;SDS011;46681;47.696;9.140;2023-03-15T10:29:12;2.53;;;1.00;;
60847;SDS011;46681;47.696;9.140;2023-03-15T10:32:04;0.90;;;0.90;;
60847;SDS011;46681;47.696;9.140;2023-03-15T10:34:46;1.13;;;1.03;;
60847;SDS011;46681;47.696;9.140;2023-03-15T10:37:32;1.00;;;0.90;;
60847;SDS011;46681;47.696;9.140;2023-03-15T10:40:09;1.60;;;1.00;;
60847;SDS011;46681;47.696;9.140;2023-03-15T10:43:22;0.80;;;0.80;;
60847;SDS011;46681;47.696;9.140;2023-03-15T10:46:31;0.80;;;0.80;;
60847;SDS011;46681;47.696;9.140;2023-03-15T10:49:15;0.90;;;0.83;;
60847;SDS011;46681;47.696;9.140;2023-03-15T10:55:19;1.47;;;0.90;;
60847;SDS011;46681;47.696;9.140;2023-03-15T11:01:33;0.90;;;0.70;;
60847;SDS011;46681;47.696;9.140;2023-03-15T11:07:07;0.80;;;0.80;;
60847;SDS011;46681;47.696;9.140;2023-03-15T11:10:32;0.70;;;0.70;;
60847;SDS011;46681;47.696;9.140;2023-03-15T11:13:24;1.50;;;0.73;;
60847;SDS011;46681;47.696;9.140;2023-03-15T11:16:18;1.07;;;0.90;;
60847;SDS011;46681;47.696;9.140;2023-03-15T11:19:17;0.70;;;0.70;;
60847;SDS011;46681;47.696;9.140;2023-03-15T11:28:17;0.70;;;0.70;;
60847;SDS011;46681;47.696;9.140;2023-03-15T11:31:08;1.37;;;0.87;;
60847;SDS011;46681;47.696;9.140;2023-03-15T11:33:51;0.70;;;0.70;;
60847;SDS011;46681;47.696;9.140;2023-03-15T11:36:32;2.20;;;0.80;;
60847;SDS011;46681;47.696;9.140;2023-03-15T11:42:29;0.60;;;0.60;;
60847;SDS011;46681;47.696;9.140;2023-03-15T11:57:50;0.80;;;0.80;;
60847;SDS011;46681;47.696;9.140;2023-03-15T12:20:37;1.10;;;0.70;;
60847;SDS011;46681;47.696;9.140;2023-03-15T12:26:06;0.97;;;0.63;;
60847;SDS011;46681;47.696;9.140;2023-03-15T12:31:50;0.83;;;0.83;;
60847;SDS011;46681;47.696;9.140;2023-03-15T12:37:12;0.87;;;0.87;;
60847;SDS011;46681;47.696;9.140;2023-03-15T12:48:17;0.50;;;0.50;;
60847;SDS011;46681;47.696;9.140;2023-03-15T12:53:22;0.50;;;0.40;;
60847;SDS011;46681;47.696;9.140;2023-03-15T12:59:03;0.60;;;0.50;;
60847;SDS011;46681;47.696;9.140;2023-03-15T13:01:54;0.67;;;0.67;;
60847;SDS011;46681;47.696;9.140;2023-03-15T13:04:27;0.67;;;0.60;;
60847;SDS011;46681;47.696;9.140;2023-03-15T13:08:04;0.60;;;0.60;;
60847;SDS011;46681;47.696;9.140;2023-03-15T13:11:05;0.47;;;0.47;;
60847;SDS011;46681;47.696;9.140;2023-03-15T13:20:00;1.90;;;0.70;;
60847;SDS011;46681;47.696;9.140;2023-03-15T13:26:31;1.20;;;0.50;;
60847;SDS011;46681;47.696;9.140;2023-03-15T13:29:17;0.77;;;0.50;;
60847;SDS011;46681;47.696;9.140;2023-03-15T13:34:52;0.50;;;0.50;;
60847;SDS011;46681;47.696;9.140;2023-03-15T13:37:22;1.33;;;0.57;;
60847;SDS011;46681;47.696;9.140;2023-03-15T13:39:56;0.50;;;0.50;;
60847;SDS011;46681;47.696;9.140;2023-03-15T13:42:32;0.50;;;0.50;;
60847;SDS011;46681;47.696;9.140;2023-03-15T13:45:01;0.50;;;0.50;;
60847;SDS011;46681;47.696;9.140;2023-03-15T13:47:36;1.33;;;0.40;;
60847;SDS011;46681;47.696;9.140;2023-03-15T13:50:04;0.77;;;0.77;;
60847;SDS011;46681;47.696;9.140;2023-03-15T13:52:31;0.70;;;0.40;;
60847;SDS011;46681;47.696;9.140;2023-03-15T13:54:59;2.63;;;0.60;;
60847;SDS011;46681;47.696;9.140;2023-03-15T13:57:27;1.60;;;0.50;;
60847;SDS011;46681;47.696;9.140;2023-03-15T14:00:00;0.50;;;0.50;;
60847;SDS011;46681;47.696;9.140;2023-03-15T14:08:26;0.73;;;0.50;;
60847;SDS011;46681;47.696;9.140;2023-03-15T14:14:23;0.60;;;0.57;;
60847;SDS011;46681;47.696;9.140;2023-03-15T14:16:57;0.60;;;0.40;;
60847;SDS011;46681;47.696;9.140;2023-03-15T14:19:37;0.50;;;0.50;;
60847;SDS011;46681;47.696;9.140;2023-03-15T14:22:33;1.07;;;0.50;;
60847;SDS011;46681;47.696;9.140;2023-03-15T14:25:20;0.50;;;0.50;;
60847;SDS011;46681;47.696;9.140;2023-03-15T14:27:48;0.57;;;0.40;;
60847;SDS011;46681;47.696;9.140;2023-03-15T14:30:29;0.50;;;0.50;;
60847;SDS011;46681;47.696;9.140;2023-03-15T14:33:03;0.43;;;0.43;;
60847;SDS011;46681;47.696;9.140;2023-03-15T14:35:52;0.47;;;0.47;;
60847;SDS011;46681;47.696;9.140;2023-03-15T14:38:37;0.67;;;0.47;;
60847;SDS011;46681;47.696;9.140;2023-03-15T14:44:00;1.50;;;0.53;;
60847;SDS011;46681;47.696;9.140;2023-03-15T14:46:32;1.17;;;0.40;;
60847;SDS011;46681;47.696;9.140;2023-03-15T14:49:01;3.50;;;0.70;;
60847;SDS011;46681;47.696;9.140;2023-03-15T14:51:27;2.10;;;0.50;;
60847;SDS011;46681;47.696;9.140;2023-03-15T14:53:59;0.60;;;0.60;;
60847;SDS011;46681;47.696;9.140;2023-03-15T14:56:27;1.13;;;0.60;;
60847;SDS011;46681;47.696;9.140;2023-03-15T14:58:55;0.60;;;0.60;;
60847;SDS011;46681;47.696;9.140;2023-03-15T15:01:36;0.83;;;0.60;;
60847;SDS011;46681;47.696;9.140;2023-03-15T15:04:04;2.00;;;0.90;;
60847;SDS011;46681;47.696;9.140;2023-03-15T15:06:34;0.70;;;0.70;;
60847;SDS011;46681;47.696;9.140;2023-03-15T15:09:02;1.40;;;0.67;;
60847;SDS011;46681;47.696;9.140;2023-03-15T15:11:32;0.40;;;0.40;;
60847;SDS011;46681;47.696;9.140;2023-03-15T15:16:43;0.60;;;0.60;;
60847;SDS011;46681;47.696;9.140;2023-03-15T15:19:12;0.43;;;0.43;;
60847;SDS011;46681;47.696;9.140;2023-03-15T15:21:51;0.57;;;0.50;;
60847;SDS011;46681;47.696;9.140;2023-03-15T15:24:17;0.80;;;0.60;;
60847;SDS011;46681;47.696;9.140;2023-03-15T15:26:59;0.50;;;0.50;;
60847;SDS011;46681;47.696;9.140;2023-03-15T15:29:27;1.00;;;0.63;;
60847;SDS011;46681;47.696;9.140;2023-03-15T15:31:53;0.70;;;0.57;;
60847;SDS011;46681;47.696;9.140;2023-03-15T15:34:18;0.67;;;0.60;;
60847;SDS011;46681;47.696;9.140;2023-03-15T15:36:48;2.43;;;0.60;;
60847;SDS011;46681;47.696;9.140;2023-03-15T15:41:48;1.33;;;0.47;;
60847;SDS011;46681;47.696;9.140;2023-03-15T15:44:20;1.03;;;0.87;;
60847;SDS011;46681;47.696;9.140;2023-03-15T15:46:50;0.87;;;0.60;;
60847;SDS011;46681;47.696;9.140;2023-03-15T15:49:16;0.70;;;0.70;;
60847;SDS011;46681;47.696;9.140;2023-03-15T15:51:51;1.17;;;0.60;;
60847;SDS011;46681;47.696;9.140;2023-03-15T15:54:23;1.70;;;0.80;;
60847;SDS011;46681;47.696;9.140;2023-03-15T15:57:01;0.60;;;0.60;;
60847;SDS011;46681;47.696;9.140;2023-03-15T15:59:38;0.67;;;0.60;;
60847;SDS011;46681;47.696;9.140;2023-03-15T16:02:11;0.57;;;0.57;;
60847;SDS011;46681;47.696;9.140;2023-03-15T16:04:47;0.60;;;0.60;;
60847;SDS011;46681;47.696;9.140;2023-03-15T16:07:41;0.67;;;0.50;;
60847;SDS011;46681;47.696;9.140;2023-03-15T16:10:28;1.07;;;0.50;;
60847;SDS011;46681;47.696;9.140;2023-03-15T16:12:55;0.60;;;0.60;;
60847;SDS011;46681;47.696;9.140;2023-03-15T16:15:28;0.70;;;0.63;;
60847;SDS011;46681;47.696;9.140;2023-03-15T16:17:57;0.50;;;0.50;;
60847;SDS011;46681;47.696;9.140;2023-03-15T16:20:44;0.53;;;0.50;;
60847;SDS011;46681;47.696;9.140;2023-03-15T16:23:19;0.60;;;0.60;;
60847;SDS011;46681;47.696;9.140;2023-03-15T16:25:52;0.50;;;0.50;;
60847;SDS011;46681;47.696;9.140;2023-03-15T16:28:22;1.37;;;0.60;;
60847;SDS011;46681;47.696;9.140;2023-03-15T16:30:52;0.70;;;0.70;;
60847;SDS011;46681;47.696;9.140;2023-03-15T16:33:19;0.50;;;0.50;;
60847;SDS011;46681;47.696;9.140;2023-03-15T16:35:50;0.60;;;0.60;;
60847;SDS011;46681;47.696;9.140;2023-03-15T16:38:18;0.50;;;0.50;;
60847;SDS011;46681;47.696;9.140;2023-03-15T16:40:50;0.53;;;0.53;;
60847;SDS011;46681;47.696;9.140;2023-03-15T16:43:22;0.60;;;0.60;;
60847;SDS011;46681;47.696;9.140;2023-03-15T16:45:51;0.60;;;0.60;;
60847;SDS011;46681;47.696;9.140;2023-03-15T16:48:22;1.07;;;0.77;;
60847;SDS011;46681;47.696;9.140;2023-03-15T16:50:48;1.50;;;0.50;;
60847;SDS011;46681;47.696;9.140;2023-03-15T16:53:18;0.87;;;0.60;;
60847;SDS011;46681;47.696;9.140;2023-03-15T16:55:53;0.70;;;0.70;;
60847;SDS011;46681;47.696;9.140;2023-03-15T16:58:20;0.70;;;0.70;;
60847;SDS011;46681;47.696;9.140;2023-03-15T17:00:47;1.67;;;1.03;;
60847;SDS011;46681;47.696;9.140;2023-03-15T17:03:16;1.30;;;0.70;;
60847;SDS011;46681;47.696;9.140;2023-03-15T17:05:43;1.60;;;0.70;;
60847;SDS011;46681;47.696;9.140;2023-03-15T17:08:14;1.53;;;0.73;;
60847;SDS011;46681;47.696;9.140;2023-03-15T17:10:43;0.60;;;0.60;;
60847;SDS011;46681;47.696;9.140;2023-03-15T17:13:13;1.03;;;0.80;;
60847;SDS011;46681;47.696;9.140;2023-03-15T17:15:45;2.63;;;0.97;;
60847;SDS011;46681;47.696;9.140;2023-03-15T17:18:14;1.27;;;0.70;;
60847;SDS011;46681;47.696;9.140;2023-03-15T17:20:41;1.37;;;1.27;;
60847;SDS011;46681;47.696;9.140;2023-03-15T17:23:16;2.77;;;0.80;;
60847;SDS011;46681;47.696;9.140;2023-03-15T17:25:42;0.60;;;0.60;;
60847;SDS011;46681;47.696;9.140;2023-03-15T17:28:13;0.70;;;0.70;;
60847;SDS011;46681;47.696;9.140;2023-03-15T17:30:41;2.63;;;0.70;;
60847;SDS011;46681;47.696;9.140;2023-03-15T17:33:07;0.70;;;0.63;;